sensor_id;sensor_type;location;lat;lon;timestamp;P1;durP1;ratioP1;P2;durP2;ratioP2
50773;SDS011;36745;48.544;8.918;2022-07-05T00:02:33;4.93;;;3.47;;
50773;SDS011;36745;48.544;8.918;2022-07-05T00:05:33;4.65;;;3.35;;
50773;SDS011;36745;48.544;8.918;2022-07-05T00:08:34;6.30;;;3.65;;
50773;SDS011;36745;48.544;8.918;2022-07-05T00:11:35;4.90;;;3.40;;
50773;SDS011;36745;48.544;8.918;2022-07-05T00:14:35;4.40;;;3.50;;
50773;SDS011;36745;48.544;8.918;2022-07-05T00:17:36;3.90;;;3.35;;
50773;SDS011;36745;48.544;8.918;2022-07-05T00:20:36;4.03;;;3.58;;
50773;SDS011;36745;48.544;8.918;2022-07-05T00:23:37;7.50;;;3.35;;
50773;SDS011;36745;48.544;8.918;2022-07-05T00:26:37;4.07;;;3.67;;
50773;SDS011;36745;48.544;8.918;2022-07-05T00:29:37;6.82;;;3.60;;
50773;SDS011;36745;48.544;8.918;2022-07-05T00:32:39;4.97;;;3.25;;
50773;SDS011;36745;48.544;8.918;2022-07-05T00:35:39;4.80;;;3.33;;
50773;SDS011;36745;48.544;8.918;2022-07-05T00:38:39;4.53;;;3.35;;
50773;SDS011;36745;48.544;8.918;2022-07-05T00:41:40;4.20;;;3.60;;
50773;SDS011;36745;48.544;8.918;2022-07-05T00:44:41;4.07;;;3.55;;
50773;SDS011;36745;48.544;8.918;2022-07-05T00:47:42;5.18;;;3.30;;
50773;SDS011;36745;48.544;8.918;2022-07-05T00:50:42;5.13;;;3.20;;
50773;SDS011;36745;48.544;8.918;2022-07-05T00:53:43;5.50;;;3.47;;
50773;SDS011;36745;48.544;8.918;2022-07-05T00:56:44;8.07;;;3.55;;
50773;SDS011;36745;48.544;8.918;2022-07-05T00:59:44;4.05;;;3.35;;
50773;SDS011;36745;48.544;8.918;2022-07-05T01:02:45;7.40;;;3.25;;
50773;SDS011;36745;48.544;8.918;2022-07-05T01:05:45;8.32;;;3.00;;
50773;SDS011;36745;48.544;8.918;2022-07-05T01:08:46;3.85;;;2.92;;
50773;SDS011;36745;48.544;8.918;2022-07-05T01:11:48;5.20;;;3.30;;
50773;SDS011;36745;48.544;8.918;2022-07-05T01:14:50;4.38;;;3.00;;
50773;SDS011;36745;48.544;8.918;2022-07-05T01:17:51;5.53;;;3.10;;
50773;SDS011;36745;48.544;8.918;2022-07-05T01:20:52;3.53;;;3.20;;
50773;SDS011;36745;48.544;8.918;2022-07-05T01:23:52;6.15;;;3.47;;
50773;SDS011;36745;48.544;8.918;2022-07-05T01:26:53;11.38;;;3.70;;
50773;SDS011;36745;48.544;8.918;2022-07-05T01:29:54;4.13;;;3.22;;
50773;SDS011;36745;48.544;8.918;2022-07-05T01:32:54;5.85;;;3.10;;
50773;SDS011;36745;48.544;8.918;2022-07-05T01:35:55;5.25;;;3.58;;
50773;SDS011;36745;48.544;8.918;2022-07-05T01:38:56;9.73;;;3.30;;
50773;SDS011;36745;48.544;8.918;2022-07-05T01:41:57;6.93;;;3.25;;
50773;SDS011;36745;48.544;8.918;2022-07-05T01:44:57;7.60;;;2.80;;
50773;SDS011;36745;48.544;8.918;2022-07-05T01:47:58;3.40;;;2.85;;
50773;SDS011;36745;48.544;8.918;2022-07-05T01:51:03;4.85;;;3.10;;
50773;SDS011;36745;48.544;8.918;2022-07-05T01:54:05;8.32;;;3.55;;
50773;SDS011;36745;48.544;8.918;2022-07-05T01:57:06;7.20;;;3.50;;
50773;SDS011;36745;48.544;8.918;2022-07-05T02:00:08;4.93;;;3.20;;
50773;SDS011;36745;48.544;8.918;2022-07-05T02:03:09;6.65;;;3.38;;
50773;SDS011;36745;48.544;8.918;2022-07-05T02:06:10;4.32;;;3.00;;
50773;SDS011;36745;48.544;8.918;2022-07-05T02:09:11;5.53;;;3.38;;
50773;SDS011;36745;48.544;8.918;2022-07-05T02:12:11;3.28;;;3.00;;
50773;SDS011;36745;48.544;8.918;2022-07-05T02:15:12;8.80;;;3.45;;
50773;SDS011;36745;48.544;8.918;2022-07-05T02:18:12;3.28;;;2.80;;
50773;SDS011;36745;48.544;8.918;2022-07-05T02:21:12;5.03;;;3.20;;
50773;SDS011;36745;48.544;8.918;2022-07-05T02:24:13;3.72;;;3.10;;
50773;SDS011;36745;48.544;8.918;2022-07-05T02:27:14;6.88;;;3.47;;
50773;SDS011;36745;48.544;8.918;2022-07-05T02:30:15;11.80;;;3.38;;
50773;SDS011;36745;48.544;8.918;2022-07-05T02:33:15;4.65;;;3.60;;
50773;SDS011;36745;48.544;8.918;2022-07-05T02:36:15;6.97;;;3.70;;
50773;SDS011;36745;48.544;8.918;2022-07-05T02:39:16;5.63;;;3.67;;
50773;SDS011;36745;48.544;8.918;2022-07-05T02:42:16;6.13;;;3.17;;
50773;SDS011;36745;48.544;8.918;2022-07-05T02:45:17;5.72;;;3.05;;
50773;SDS011;36745;48.544;8.918;2022-07-05T02:48:17;9.43;;;3.40;;
50773;SDS011;36745;48.544;8.918;2022-07-05T02:51:18;6.25;;;3.75;;
50773;SDS011;36745;48.544;8.918;2022-07-05T02:54:18;7.25;;;3.25;;
50773;SDS011;36745;48.544;8.918;2022-07-05T02:57:18;6.25;;;3.47;;
50773;SDS011;36745;48.544;8.918;2022-07-05T03:00:19;7.03;;;3.75;;
50773;SDS011;36745;48.544;8.918;2022-07-05T03:03:19;6.97;;;3.95;;
50773;SDS011;36745;48.544;8.918;2022-07-05T03:06:20;6.30;;;3.28;;
50773;SDS011;36745;48.544;8.918;2022-07-05T03:09:20;5.90;;;2.90;;
50773;SDS011;36745;48.544;8.918;2022-07-05T03:12:21;7.47;;;3.60;;
50773;SDS011;36745;48.544;8.918;2022-07-05T03:15:21;7.57;;;3.47;;
50773;SDS011;36745;48.544;8.918;2022-07-05T03:18:21;5.40;;;3.60;;
50773;SDS011;36745;48.544;8.918;2022-07-05T03:21:22;4.78;;;3.38;;
50773;SDS011;36745;48.544;8.918;2022-07-05T03:24:22;6.60;;;3.47;;
50773;SDS011;36745;48.544;8.918;2022-07-05T03:27:23;6.30;;;4.03;;
50773;SDS011;36745;48.544;8.918;2022-07-05T03:30:23;6.10;;;3.70;;
50773;SDS011;36745;48.544;8.918;2022-07-05T03:33:24;7.75;;;3.40;;
50773;SDS011;36745;48.544;8.918;2022-07-05T03:36:24;3.97;;;3.25;;
50773;SDS011;36745;48.544;8.918;2022-07-05T03:39:25;6.18;;;4.30;;
50773;SDS011;36745;48.544;8.918;2022-07-05T03:42:25;5.93;;;3.55;;
50773;SDS011;36745;48.544;8.918;2022-07-05T03:45:25;9.02;;;3.83;;
50773;SDS011;36745;48.544;8.918;2022-07-05T03:48:26;4.05;;;3.58;;
50773;SDS011;36745;48.544;8.918;2022-07-05T03:51:26;6.68;;;3.42;;
50773;SDS011;36745;48.544;8.918;2022-07-05T03:54:27;8.98;;;3.60;;
50773;SDS011;36745;48.544;8.918;2022-07-05T03:57:27;6.88;;;3.50;;
50773;SDS011;36745;48.544;8.918;2022-07-05T04:00:28;11.43;;;3.88;;
50773;SDS011;36745;48.544;8.918;2022-07-05T04:03:28;11.30;;;4.00;;
50773;SDS011;36745;48.544;8.918;2022-07-05T04:06:29;5.35;;;3.10;;
50773;SDS011;36745;48.544;8.918;2022-07-05T04:09:29;6.70;;;3.88;;
50773;SDS011;36745;48.544;8.918;2022-07-05T04:12:29;5.10;;;3.58;;
50773;SDS011;36745;48.544;8.918;2022-07-05T04:15:30;5.30;;;4.05;;
50773;SDS011;36745;48.544;8.918;2022-07-05T04:18:30;6.53;;;3.30;;
50773;SDS011;36745;48.544;8.918;2022-07-05T04:21:31;7.45;;;3.50;;
50773;SDS011;36745;48.544;8.918;2022-07-05T04:24:31;12.48;;;4.25;;
50773;SDS011;36745;48.544;8.918;2022-07-05T04:27:53;10.07;;;4.35;;
50773;SDS011;36745;48.544;8.918;2022-07-05T04:30:54;9.70;;;4.70;;
50773;SDS011;36745;48.544;8.918;2022-07-05T04:33:54;15.43;;;4.43;;
50773;SDS011;36745;48.544;8.918;2022-07-05T04:36:55;6.60;;;3.65;;
50773;SDS011;36745;48.544;8.918;2022-07-05T04:39:55;9.50;;;3.35;;
50773;SDS011;36745;48.544;8.918;2022-07-05T04:42:55;9.50;;;3.40;;
50773;SDS011;36745;48.544;8.918;2022-07-05T04:45:56;5.55;;;2.85;;
50773;SDS011;36745;48.544;8.918;2022-07-05T04:48:56;7.20;;;2.70;;
50773;SDS011;36745;48.544;8.918;2022-07-05T04:51:57;7.22;;;2.85;;
50773;SDS011;36745;48.544;8.918;2022-07-05T04:54:57;8.57;;;2.90;;
50773;SDS011;36745;48.544;8.918;2022-07-05T04:57:57;5.97;;;2.70;;
50773;SDS011;36745;48.544;8.918;2022-07-05T05:00:58;6.10;;;2.60;;
50773;SDS011;36745;48.544;8.918;2022-07-05T05:03:58;5.45;;;2.50;;
50773;SDS011;36745;48.544;8.918;2022-07-05T05:06:59;4.97;;;2.78;;
50773;SDS011;36745;48.544;8.918;2022-07-05T05:09:59;4.47;;;2.42;;
50773;SDS011;36745;48.544;8.918;2022-07-05T05:13:00;9.93;;;3.00;;
50773;SDS011;36745;48.544;8.918;2022-07-05T05:16:01;14.40;;;3.08;;
50773;SDS011;36745;48.544;8.918;2022-07-05T05:19:01;5.75;;;2.60;;
50773;SDS011;36745;48.544;8.918;2022-07-05T05:22:02;6.32;;;2.55;;
50773;SDS011;36745;48.544;8.918;2022-07-05T05:25:02;7.18;;;2.58;;
50773;SDS011;36745;48.544;8.918;2022-07-05T05:28:04;8.00;;;2.42;;
50773;SDS011;36745;48.544;8.918;2022-07-05T05:31:04;6.03;;;2.80;;
50773;SDS011;36745;48.544;8.918;2022-07-05T05:34:05;10.55;;;2.22;;
50773;SDS011;36745;48.544;8.918;2022-07-05T05:37:05;10.30;;;2.75;;
50773;SDS011;36745;48.544;8.918;2022-07-05T05:40:06;15.38;;;3.10;;
50773;SDS011;36745;48.544;8.918;2022-07-05T05:43:07;4.93;;;2.53;;
50773;SDS011;36745;48.544;8.918;2022-07-05T05:46:07;4.50;;;2.20;;
50773;SDS011;36745;48.544;8.918;2022-07-05T05:49:08;5.32;;;2.25;;
50773;SDS011;36745;48.544;8.918;2022-07-05T05:52:08;6.38;;;2.45;;
50773;SDS011;36745;48.544;8.918;2022-07-05T05:55:09;6.97;;;2.70;;
50773;SDS011;36745;48.544;8.918;2022-07-05T06:01:23;8.23;;;2.05;;
50773;SDS011;36745;48.544;8.918;2022-07-05T06:04:24;5.13;;;2.25;;
50773;SDS011;36745;48.544;8.918;2022-07-05T06:07:24;6.65;;;2.00;;
50773;SDS011;36745;48.544;8.918;2022-07-05T06:10:29;5.22;;;2.47;;
50773;SDS011;36745;48.544;8.918;2022-07-05T06:13:30;3.67;;;2.40;;
50773;SDS011;36745;48.544;8.918;2022-07-05T06:16:32;3.17;;;2.10;;
50773;SDS011;36745;48.544;8.918;2022-07-05T06:19:33;6.05;;;2.45;;
50773;SDS011;36745;48.544;8.918;2022-07-05T06:22:33;3.65;;;2.20;;
50773;SDS011;36745;48.544;8.918;2022-07-05T06:25:34;6.78;;;2.30;;
50773;SDS011;36745;48.544;8.918;2022-07-05T06:28:36;2.37;;;1.87;;
50773;SDS011;36745;48.544;8.918;2022-07-05T06:31:36;3.05;;;1.90;;
50773;SDS011;36745;48.544;8.918;2022-07-05T06:34:37;2.55;;;1.70;;
50773;SDS011;36745;48.544;8.918;2022-07-05T06:37:41;4.70;;;2.10;;
50773;SDS011;36745;48.544;8.918;2022-07-05T06:40:48;6.38;;;2.25;;
50773;SDS011;36745;48.544;8.918;2022-07-05T06:43:49;4.30;;;1.75;;
50773;SDS011;36745;48.544;8.918;2022-07-05T06:46:49;4.40;;;1.98;;
50773;SDS011;36745;48.544;8.918;2022-07-05T06:49:50;2.15;;;1.35;;
50773;SDS011;36745;48.544;8.918;2022-07-05T06:52:50;4.40;;;1.25;;
50773;SDS011;36745;48.544;8.918;2022-07-05T06:55:51;4.18;;;1.63;;
50773;SDS011;36745;48.544;8.918;2022-07-05T06:58:51;2.35;;;1.30;;
50773;SDS011;36745;48.544;8.918;2022-07-05T07:01:51;3.25;;;1.30;;
50773;SDS011;36745;48.544;8.918;2022-07-05T07:04:52;3.88;;;1.30;;
50773;SDS011;36745;48.544;8.918;2022-07-05T07:07:52;6.13;;;1.33;;
50773;SDS011;36745;48.544;8.918;2022-07-05T07:11:11;3.90;;;1.60;;
50773;SDS011;36745;48.544;8.918;2022-07-05T07:14:13;2.55;;;1.50;;
50773;SDS011;36745;48.544;8.918;2022-07-05T07:17:14;3.15;;;1.40;;
50773;SDS011;36745;48.544;8.918;2022-07-05T07:20:14;3.92;;;1.50;;
50773;SDS011;36745;48.544;8.918;2022-07-05T07:23:15;3.97;;;1.20;;
50773;SDS011;36745;48.544;8.918;2022-07-05T07:26:16;2.05;;;1.08;;
50773;SDS011;36745;48.544;8.918;2022-07-05T07:29:17;1.75;;;1.30;;
50773;SDS011;36745;48.544;8.918;2022-07-05T07:32:17;2.88;;;1.15;;
50773;SDS011;36745;48.544;8.918;2022-07-05T07:35:18;2.75;;;1.10;;
50773;SDS011;36745;48.544;8.918;2022-07-05T07:38:19;5.07;;;1.23;;
50773;SDS011;36745;48.544;8.918;2022-07-05T07:41:20;2.22;;;1.10;;
50773;SDS011;36745;48.544;8.918;2022-07-05T07:44:20;4.82;;;1.10;;
50773;SDS011;36745;48.544;8.918;2022-07-05T07:47:21;3.72;;;1.13;;
50773;SDS011;36745;48.544;8.918;2022-07-05T07:50:21;2.20;;;1.02;;
50773;SDS011;36745;48.544;8.918;2022-07-05T07:53:22;4.43;;;1.10;;
50773;SDS011;36745;48.544;8.918;2022-07-05T07:56:23;2.50;;;1.02;;
50773;SDS011;36745;48.544;8.918;2022-07-05T07:59:23;1.27;;;0.95;;
50773;SDS011;36745;48.544;8.918;2022-07-05T08:02:24;2.15;;;1.00;;
50773;SDS011;36745;48.544;8.918;2022-07-05T08:05:24;2.13;;;0.90;;
50773;SDS011;36745;48.544;8.918;2022-07-05T08:08:24;5.20;;;1.02;;
50773;SDS011;36745;48.544;8.918;2022-07-05T08:11:25;2.72;;;0.93;;
50773;SDS011;36745;48.544;8.918;2022-07-05T08:14:25;3.05;;;0.88;;
50773;SDS011;36745;48.544;8.918;2022-07-05T08:17:26;4.70;;;1.05;;
50773;SDS011;36745;48.544;8.918;2022-07-05T08:20:26;2.38;;;1.00;;
50773;SDS011;36745;48.544;8.918;2022-07-05T08:23:45;4.20;;;0.80;;
50773;SDS011;36745;48.544;8.918;2022-07-05T08:26:45;4.30;;;1.10;;
50773;SDS011;36745;48.544;8.918;2022-07-05T08:29:46;4.82;;;0.93;;
50773;SDS011;36745;48.544;8.918;2022-07-05T08:32:46;2.50;;;1.08;;
50773;SDS011;36745;48.544;8.918;2022-07-05T08:35:47;2.55;;;1.08;;
50773;SDS011;36745;48.544;8.918;2022-07-05T08:38:47;3.38;;;1.08;;
50773;SDS011;36745;48.544;8.918;2022-07-05T08:41:49;3.90;;;1.10;;
50773;SDS011;36745;48.544;8.918;2022-07-05T08:44:50;1.63;;;1.05;;
50773;SDS011;36745;48.544;8.918;2022-07-05T08:47:51;2.83;;;0.90;;
50773;SDS011;36745;48.544;8.918;2022-07-05T08:50:52;1.05;;;0.88;;
50773;SDS011;36745;48.544;8.918;2022-07-05T08:53:56;5.60;;;1.23;;
50773;SDS011;36745;48.544;8.918;2022-07-05T08:56:56;2.60;;;1.00;;
50773;SDS011;36745;48.544;8.918;2022-07-05T08:59:57;4.25;;;1.23;;
50773;SDS011;36745;48.544;8.918;2022-07-05T09:02:57;3.53;;;0.93;;
50773;SDS011;36745;48.544;8.918;2022-07-05T09:06:00;1.60;;;1.20;;
50773;SDS011;36745;48.544;8.918;2022-07-05T09:09:02;4.70;;;1.08;;
50773;SDS011;36745;48.544;8.918;2022-07-05T09:12:03;4.53;;;1.17;;
50773;SDS011;36745;48.544;8.918;2022-07-05T09:15:04;5.43;;;1.00;;
50773;SDS011;36745;48.544;8.918;2022-07-05T09:18:05;4.18;;;1.10;;
50773;SDS011;36745;48.544;8.918;2022-07-05T09:21:19;4.95;;;1.20;;
50773;SDS011;36745;48.544;8.918;2022-07-05T09:24:21;8.77;;;1.02;;
50773;SDS011;36745;48.544;8.918;2022-07-05T09:27:22;1.42;;;1.10;;
50773;SDS011;36745;48.544;8.918;2022-07-05T09:33:29;4.15;;;0.98;;
50773;SDS011;36745;48.544;8.918;2022-07-05T09:36:46;1.27;;;0.63;;
50773;SDS011;36745;48.544;8.918;2022-07-05T09:39:50;4.68;;;0.70;;
50773;SDS011;36745;48.544;8.918;2022-07-05T09:42:51;3.83;;;1.00;;
50773;SDS011;36745;48.544;8.918;2022-07-05T09:49:02;1.45;;;0.68;;
50773;SDS011;36745;48.544;8.918;2022-07-05T09:52:03;7.90;;;1.10;;
50773;SDS011;36745;48.544;8.918;2022-07-05T09:55:07;2.95;;;0.95;;
50773;SDS011;36745;48.544;8.918;2022-07-05T09:58:12;1.98;;;0.65;;
50773;SDS011;36745;48.544;8.918;2022-07-05T10:01:31;1.67;;;0.90;;
50773;SDS011;36745;48.544;8.918;2022-07-05T10:04:32;1.90;;;0.70;;
50773;SDS011;36745;48.544;8.918;2022-07-05T10:07:32;1.88;;;0.75;;
50773;SDS011;36745;48.544;8.918;2022-07-05T10:10:34;3.70;;;1.05;;
50773;SDS011;36745;48.544;8.918;2022-07-05T10:13:35;3.47;;;0.77;;
50773;SDS011;36745;48.544;8.918;2022-07-05T10:16:36;2.45;;;0.80;;
50773;SDS011;36745;48.544;8.918;2022-07-05T10:19:38;2.58;;;0.82;;
50773;SDS011;36745;48.544;8.918;2022-07-05T10:22:46;2.42;;;0.80;;
50773;SDS011;36745;48.544;8.918;2022-07-05T10:25:48;3.80;;;0.90;;
50773;SDS011;36745;48.544;8.918;2022-07-05T10:28:50;1.02;;;0.60;;
50773;SDS011;36745;48.544;8.918;2022-07-05T10:34:52;4.50;;;0.90;;
50773;SDS011;36745;48.544;8.918;2022-07-05T10:37:53;2.95;;;0.90;;
50773;SDS011;36745;48.544;8.918;2022-07-05T10:40:55;3.22;;;0.82;;
50773;SDS011;36745;48.544;8.918;2022-07-05T10:43:59;1.40;;;0.60;;
50773;SDS011;36745;48.544;8.918;2022-07-05T10:47:09;6.93;;;0.90;;
50773;SDS011;36745;48.544;8.918;2022-07-05T10:50:11;2.03;;;0.70;;
50773;SDS011;36745;48.544;8.918;2022-07-05T10:53:11;2.08;;;0.82;;
50773;SDS011;36745;48.544;8.918;2022-07-05T10:56:12;1.73;;;0.73;;
50773;SDS011;36745;48.544;8.918;2022-07-05T10:59:13;2.95;;;0.90;;
50773;SDS011;36745;48.544;8.918;2022-07-05T11:02:13;2.53;;;0.88;;
50773;SDS011;36745;48.544;8.918;2022-07-05T11:05:16;1.70;;;0.65;;
50773;SDS011;36745;48.544;8.918;2022-07-05T11:11:19;1.90;;;0.60;;
50773;SDS011;36745;48.544;8.918;2022-07-05T11:17:26;1.73;;;1.05;;
50773;SDS011;36745;48.544;8.918;2022-07-05T11:20:30;6.90;;;0.85;;
50773;SDS011;36745;48.544;8.918;2022-07-05T11:23:32;6.30;;;0.90;;
50773;SDS011;36745;48.544;8.918;2022-07-05T11:26:32;2.08;;;0.93;;
50773;SDS011;36745;48.544;8.918;2022-07-05T11:29:42;5.90;;;0.80;;
50773;SDS011;36745;48.544;8.918;2022-07-05T11:32:43;3.50;;;1.20;;
50773;SDS011;36745;48.544;8.918;2022-07-05T11:35:44;1.08;;;0.70;;
50773;SDS011;36745;48.544;8.918;2022-07-05T11:39:18;1.80;;;0.90;;
50773;SDS011;36745;48.544;8.918;2022-07-05T11:42:21;4.25;;;1.00;;
50773;SDS011;36745;48.544;8.918;2022-07-05T11:45:21;0.82;;;0.73;;
50773;SDS011;36745;48.544;8.918;2022-07-05T11:48:22;1.25;;;0.80;;
50773;SDS011;36745;48.544;8.918;2022-07-05T11:51:25;0.70;;;0.70;;
50773;SDS011;36745;48.544;8.918;2022-07-05T11:54:26;1.70;;;0.80;;
50773;SDS011;36745;48.544;8.918;2022-07-05T11:57:28;5.30;;;0.90;;
50773;SDS011;36745;48.544;8.918;2022-07-05T12:00:29;1.17;;;0.98;;
50773;SDS011;36745;48.544;8.918;2022-07-05T12:03:30;2.28;;;1.15;;
50773;SDS011;36745;48.544;8.918;2022-07-05T12:06:30;2.67;;;0.90;;
50773;SDS011;36745;48.544;8.918;2022-07-05T12:09:32;3.13;;;1.00;;
50773;SDS011;36745;48.544;8.918;2022-07-05T12:12:52;1.95;;;1.08;;
50773;SDS011;36745;48.544;8.918;2022-07-05T12:16:00;0.95;;;0.85;;
50773;SDS011;36745;48.544;8.918;2022-07-05T12:19:06;2.25;;;0.90;;
50773;SDS011;36745;48.544;8.918;2022-07-05T12:22:07;4.00;;;1.00;;
50773;SDS011;36745;48.544;8.918;2022-07-05T12:25:10;4.05;;;1.17;;
50773;SDS011;36745;48.544;8.918;2022-07-05T12:28:12;1.70;;;0.88;;
50773;SDS011;36745;48.544;8.918;2022-07-05T12:31:17;2.77;;;0.87;;
50773;SDS011;36745;48.544;8.918;2022-07-05T12:34:19;1.40;;;0.88;;
50773;SDS011;36745;48.544;8.918;2022-07-05T12:37:25;5.50;;;0.90;;
50773;SDS011;36745;48.544;8.918;2022-07-05T12:40:27;2.72;;;0.98;;
50773;SDS011;36745;48.544;8.918;2022-07-05T12:43:28;4.10;;;1.17;;
50773;SDS011;36745;48.544;8.918;2022-07-05T12:46:38;3.13;;;1.00;;
50773;SDS011;36745;48.544;8.918;2022-07-05T12:49:52;3.13;;;1.08;;
50773;SDS011;36745;48.544;8.918;2022-07-05T12:52:56;3.10;;;1.52;;
50773;SDS011;36745;48.544;8.918;2022-07-05T12:56:04;1.65;;;0.90;;
50773;SDS011;36745;48.544;8.918;2022-07-05T12:59:29;7.63;;;1.20;;
50773;SDS011;36745;48.544;8.918;2022-07-05T13:02:48;2.65;;;1.00;;
50773;SDS011;36745;48.544;8.918;2022-07-05T13:06:01;3.00;;;1.00;;
50773;SDS011;36745;48.544;8.918;2022-07-05T13:09:02;2.78;;;1.00;;
50773;SDS011;36745;48.544;8.918;2022-07-05T13:12:12;11.13;;;1.58;;
50773;SDS011;36745;48.544;8.918;2022-07-05T13:15:18;3.17;;;0.90;;
50773;SDS011;36745;48.544;8.918;2022-07-05T13:18:23;11.48;;;1.27;;
50773;SDS011;36745;48.544;8.918;2022-07-05T13:21:25;3.33;;;0.80;;
50773;SDS011;36745;48.544;8.918;2022-07-05T13:24:25;2.45;;;1.17;;
50773;SDS011;36745;48.544;8.918;2022-07-05T13:27:26;7.25;;;1.65;;
50773;SDS011;36745;48.544;8.918;2022-07-05T13:30:27;4.07;;;0.93;;
50773;SDS011;36745;48.544;8.918;2022-07-05T13:33:27;2.55;;;1.02;;
50773;SDS011;36745;48.544;8.918;2022-07-05T13:36:27;2.55;;;1.40;;
50773;SDS011;36745;48.544;8.918;2022-07-05T13:39:28;2.45;;;0.90;;
50773;SDS011;36745;48.544;8.918;2022-07-05T13:42:29;2.65;;;0.90;;
50773;SDS011;36745;48.544;8.918;2022-07-05T13:45:29;6.15;;;1.02;;
50773;SDS011;36745;48.544;8.918;2022-07-05T13:48:29;1.92;;;1.00;;
50773;SDS011;36745;48.544;8.918;2022-07-05T13:51:30;4.25;;;1.13;;
50773;SDS011;36745;48.544;8.918;2022-07-05T13:54:30;2.92;;;0.98;;
50773;SDS011;36745;48.544;8.918;2022-07-05T13:57:31;2.90;;;1.00;;
50773;SDS011;36745;48.544;8.918;2022-07-05T14:00:31;2.03;;;0.95;;
50773;SDS011;36745;48.544;8.918;2022-07-05T14:03:32;8.55;;;1.20;;
50773;SDS011;36745;48.544;8.918;2022-07-05T14:06:32;2.30;;;1.15;;
50773;SDS011;36745;48.544;8.918;2022-07-05T14:09:34;2.07;;;1.20;;
50773;SDS011;36745;48.544;8.918;2022-07-05T14:12:35;2.35;;;1.00;;
50773;SDS011;36745;48.544;8.918;2022-07-05T14:15:35;1.75;;;0.90;;
50773;SDS011;36745;48.544;8.918;2022-07-05T14:18:36;10.38;;;1.35;;
50773;SDS011;36745;48.544;8.918;2022-07-05T14:21:36;5.07;;;1.33;;
50773;SDS011;36745;48.544;8.918;2022-07-05T14:24:37;2.88;;;0.98;;
50773;SDS011;36745;48.544;8.918;2022-07-05T14:27:37;3.72;;;1.40;;
50773;SDS011;36745;48.544;8.918;2022-07-05T14:30:40;3.60;;;1.10;;
50773;SDS011;36745;48.544;8.918;2022-07-05T14:33:42;6.82;;;1.17;;
50773;SDS011;36745;48.544;8.918;2022-07-05T14:36:43;5.10;;;1.40;;
50773;SDS011;36745;48.544;8.918;2022-07-05T14:39:43;6.07;;;1.40;;
50773;SDS011;36745;48.544;8.918;2022-07-05T14:42:44;1.20;;;1.10;;
50773;SDS011;36745;48.544;8.918;2022-07-05T14:45:44;1.45;;;1.00;;
50773;SDS011;36745;48.544;8.918;2022-07-05T14:48:45;2.88;;;1.00;;
50773;SDS011;36745;48.544;8.918;2022-07-05T14:51:46;3.85;;;1.10;;
50773;SDS011;36745;48.544;8.918;2022-07-05T14:54:46;4.35;;;1.10;;
50773;SDS011;36745;48.544;8.918;2022-07-05T14:57:47;3.42;;;1.10;;
50773;SDS011;36745;48.544;8.918;2022-07-05T15:00:47;2.60;;;0.93;;
50773;SDS011;36745;48.544;8.918;2022-07-05T15:03:48;2.58;;;1.20;;
50773;SDS011;36745;48.544;8.918;2022-07-05T15:06:48;6.25;;;1.40;;
50773;SDS011;36745;48.544;8.918;2022-07-05T15:09:49;3.47;;;1.20;;
50773;SDS011;36745;48.544;8.918;2022-07-05T15:12:49;3.28;;;1.05;;
50773;SDS011;36745;48.544;8.918;2022-07-05T15:15:50;2.28;;;1.30;;
50773;SDS011;36745;48.544;8.918;2022-07-05T15:18:50;3.10;;;1.20;;
50773;SDS011;36745;48.544;8.918;2022-07-05T15:21:53;3.17;;;1.33;;
50773;SDS011;36745;48.544;8.918;2022-07-05T15:24:53;3.10;;;1.00;;
50773;SDS011;36745;48.544;8.918;2022-07-05T15:27:54;3.63;;;1.10;;
50773;SDS011;36745;48.544;8.918;2022-07-05T15:30:55;5.38;;;1.15;;
50773;SDS011;36745;48.544;8.918;2022-07-05T15:33:55;2.85;;;1.10;;
50773;SDS011;36745;48.544;8.918;2022-07-05T15:36:56;8.13;;;1.13;;
50773;SDS011;36745;48.544;8.918;2022-07-05T15:39:57;2.15;;;1.00;;
50773;SDS011;36745;48.544;8.918;2022-07-05T15:42:58;3.33;;;1.20;;
50773;SDS011;36745;48.544;8.918;2022-07-05T15:45:59;2.47;;;1.20;;
50773;SDS011;36745;48.544;8.918;2022-07-05T15:48:59;2.60;;;1.20;;
50773;SDS011;36745;48.544;8.918;2022-07-05T15:51:59;2.65;;;1.10;;
50773;SDS011;36745;48.544;8.918;2022-07-05T15:55:00;5.75;;;1.20;;
50773;SDS011;36745;48.544;8.918;2022-07-05T15:58:01;10.18;;;1.30;;
50773;SDS011;36745;48.544;8.918;2022-07-05T16:01:01;1.35;;;1.00;;
50773;SDS011;36745;48.544;8.918;2022-07-05T16:07:47;2.53;;;0.88;;
50773;SDS011;36745;48.544;8.918;2022-07-05T16:10:47;3.45;;;1.23;;
50773;SDS011;36745;48.544;8.918;2022-07-05T16:13:48;1.45;;;1.00;;
50773;SDS011;36745;48.544;8.918;2022-07-05T16:16:48;2.78;;;0.95;;
50773;SDS011;36745;48.544;8.918;2022-07-05T16:19:49;2.38;;;1.10;;
50773;SDS011;36745;48.544;8.918;2022-07-05T16:22:49;2.13;;;0.90;;
50773;SDS011;36745;48.544;8.918;2022-07-05T16:25:50;1.23;;;1.00;;
50773;SDS011;36745;48.544;8.918;2022-07-05T16:28:50;4.25;;;1.10;;
50773;SDS011;36745;48.544;8.918;2022-07-05T16:31:50;0.63;;;0.60;;
50773;SDS011;36745;48.544;8.918;2022-07-05T16:34:52;1.90;;;1.08;;
50773;SDS011;36745;48.544;8.918;2022-07-05T16:37:52;8.07;;;1.00;;
50773;SDS011;36745;48.544;8.918;2022-07-05T16:40:53;1.67;;;0.98;;
50773;SDS011;36745;48.544;8.918;2022-07-05T16:43:53;1.95;;;0.90;;
50773;SDS011;36745;48.544;8.918;2022-07-05T16:46:54;2.55;;;0.80;;
50773;SDS011;36745;48.544;8.918;2022-07-05T16:49:54;2.10;;;0.80;;
50773;SDS011;36745;48.544;8.918;2022-07-05T16:52:55;4.25;;;0.95;;
50773;SDS011;36745;48.544;8.918;2022-07-05T16:55:55;4.18;;;1.10;;
50773;SDS011;36745;48.544;8.918;2022-07-05T16:58:55;1.20;;;0.70;;
50773;SDS011;36745;48.544;8.918;2022-07-05T17:01:56;3.90;;;1.15;;
50773;SDS011;36745;48.544;8.918;2022-07-05T17:04:56;5.57;;;1.30;;
50773;SDS011;36745;48.544;8.918;2022-07-05T17:07:57;3.20;;;0.82;;
50773;SDS011;36745;48.544;8.918;2022-07-05T17:10:57;1.65;;;1.35;;
50773;SDS011;36745;48.544;8.918;2022-07-05T17:13:59;6.50;;;1.03;;
50773;SDS011;36745;48.544;8.918;2022-07-05T17:17:00;3.78;;;0.88;;
50773;SDS011;36745;48.544;8.918;2022-07-05T17:20:00;2.72;;;0.90;;
50773;SDS011;36745;48.544;8.918;2022-07-05T17:23:01;2.35;;;1.00;;
50773;SDS011;36745;48.544;8.918;2022-07-05T17:26:04;1.85;;;0.90;;
50773;SDS011;36745;48.544;8.918;2022-07-05T17:29:06;2.92;;;0.90;;
50773;SDS011;36745;48.544;8.918;2022-07-05T17:32:07;4.35;;;0.90;;
50773;SDS011;36745;48.544;8.918;2022-07-05T17:35:07;5.22;;;0.90;;
50773;SDS011;36745;48.544;8.918;2022-07-05T17:38:08;1.67;;;1.00;;
50773;SDS011;36745;48.544;8.918;2022-07-05T17:41:09;2.20;;;0.98;;
50773;SDS011;36745;48.544;8.918;2022-07-05T17:44:12;3.60;;;0.88;;
50773;SDS011;36745;48.544;8.918;2022-07-05T17:47:12;3.67;;;0.85;;
50773;SDS011;36745;48.544;8.918;2022-07-05T17:50:13;3.03;;;0.93;;
50773;SDS011;36745;48.544;8.918;2022-07-05T17:53:13;1.15;;;1.05;;
50773;SDS011;36745;48.544;8.918;2022-07-05T17:56:13;1.92;;;0.82;;
50773;SDS011;36745;48.544;8.918;2022-07-05T17:59:14;2.33;;;1.05;;
50773;SDS011;36745;48.544;8.918;2022-07-05T18:02:14;2.20;;;1.10;;
50773;SDS011;36745;48.544;8.918;2022-07-05T18:05:15;1.23;;;1.00;;
50773;SDS011;36745;48.544;8.918;2022-07-05T18:08:15;1.95;;;0.90;;
50773;SDS011;36745;48.544;8.918;2022-07-05T18:11:16;3.55;;;0.90;;
50773;SDS011;36745;48.544;8.918;2022-07-05T18:14:16;1.38;;;0.80;;
50773;SDS011;36745;48.544;8.918;2022-07-05T18:17:16;2.25;;;1.08;;
50773;SDS011;36745;48.544;8.918;2022-07-05T18:20:17;2.78;;;0.90;;
50773;SDS011;36745;48.544;8.918;2022-07-05T18:23:17;1.38;;;0.85;;
50773;SDS011;36745;48.544;8.918;2022-07-05T18:26:18;3.83;;;0.93;;
50773;SDS011;36745;48.544;8.918;2022-07-05T18:29:20;4.97;;;0.95;;
50773;SDS011;36745;48.544;8.918;2022-07-05T18:32:20;1.80;;;1.00;;
50773;SDS011;36745;48.544;8.918;2022-07-05T18:35:21;2.78;;;1.15;;
50773;SDS011;36745;48.544;8.918;2022-07-05T18:38:21;3.10;;;1.00;;